N5RC ROAH-RPLL
Flight info
| Callsign | N5RC |
|---|---|
| Flight time | N/A |
| Altitude | 43000 |
| Route | OLVAL V91 MJC B462 LAO/N0481F450 B462 CAB CAB5R |
| Aircraft | C750/M-SBDE3FGHRWXY/S |
Departure
| Time | 2026-04-25 02:18 |
|---|---|
| Airport | Naha International Airport (ROAH) |
Arrival
| Time | N/A |
|---|---|
| Airport | Ninoy Aquino International Airport (RPLL) |
| Time | Latitude | Longitude | Altitude | Speed | Heading |
|---|---|---|---|---|---|
| 2026-04-25 02:11 | 26.20287 | 127.64816 | 16 ft | 0 kts | 88° |
| 2026-04-25 02:15 | 26.20287 | 127.64817 | 16 ft | 2 kts | 88° |
| 2026-04-25 02:15 | 26.20243 | 127.64807 | 15 ft | 16 kts | 210° |
| 2026-04-25 02:15 | 26.20140 | 127.64767 | 14 ft | 14 kts | 176° |
| 2026-04-25 02:16 | 26.20042 | 127.64773 | 14 ft | 19 kts | 177° |
| 2026-04-25 02:16 | 26.19878 | 127.64780 | 13 ft | 24 kts | 179° |
| 2026-04-25 02:16 | 26.19725 | 127.64787 | 14 ft | 20 kts | 177° |
| 2026-04-25 02:16 | 26.19602 | 127.64799 | 14 ft | 16 kts | 173° |
| 2026-04-25 02:17 | 26.19491 | 127.64771 | 13 ft | 17 kts | 229° |
| 2026-04-25 02:17 | 26.19476 | 127.64653 | 12 ft | 14 kts | 270° |
| 2026-04-25 02:17 | 26.19521 | 127.64590 | 12 ft | 20 kts | 356° |
| 2026-04-25 02:17 | 26.20021 | 127.64566 | 12 ft | 123 kts | 357° |
| 2026-04-25 02:18 | 26.21007 | 127.64514 | 230 ft | 157 kts | 357° |
| 2026-04-25 02:18 | 26.22204 | 127.64425 | 638 ft | 186 kts | 356° |
| 2026-04-25 02:18 | 26.23564 | 127.64320 | 1355 ft | 204 kts | 356° |
| 2026-04-25 02:18 | 26.25043 | 127.64232 | 2182 ft | 221 kts | 356° |
| 2026-04-25 02:19 | 26.26564 | 127.63675 | 2712 ft | 248 kts | 324° |
| 2026-04-25 02:19 | 26.27709 | 127.62169 | 3554 ft | 255 kts | 303° |
| 2026-04-25 02:19 | 26.28775 | 127.60613 | 4645 ft | 258 kts | 317° |
| 2026-04-25 02:19 | 26.30384 | 127.59659 | 5583 ft | 264 kts | 332° |
| 2026-04-25 02:20 | 26.32068 | 127.58776 | 6478 ft | 272 kts | 331° |
| 2026-04-25 02:20 | 26.33803 | 127.57886 | 7381 ft | 276 kts | 332° |
| 2026-04-25 02:20 | 26.35575 | 127.57019 | 8372 ft | 280 kts | 332° |
| 2026-04-25 02:20 | 26.37369 | 127.56137 | 9390 ft | 283 kts | 331° |
| 2026-04-25 02:21 | 26.39137 | 127.55161 | 10217 ft | 285 kts | 322° |
| 2026-04-25 02:21 | 26.40489 | 127.53565 | 10587 ft | 292 kts | 299° |
| 2026-04-25 02:21 | 26.41251 | 127.51453 | 11034 ft | 300 kts | 278° |
| 2026-04-25 02:21 | 26.41226 | 127.49107 | 11510 ft | 310 kts | 258° |
| 2026-04-25 02:22 | 26.40342 | 127.46888 | 11989 ft | 319 kts | 237° |
| 2026-04-25 02:22 | 26.38863 | 127.45016 | 12515 ft | 326 kts | 229° |
| 2026-04-25 02:22 | 26.37208 | 127.43256 | 13214 ft | 330 kts | 224° |
| 2026-04-25 02:22 | 26.35403 | 127.41665 | 13965 ft | 332 kts | 219° |
| 2026-04-25 02:23 | 26.33447 | 127.40250 | 14550 ft | 338 kts | 214° |
| 2026-04-25 02:23 | 26.31345 | 127.39027 | 15125 ft | 344 kts | 210° |
| 2026-04-25 02:23 | 26.29104 | 127.38015 | 15702 ft | 351 kts | 205° |
| 2026-04-25 02:23 | 26.26764 | 127.37245 | 16278 ft | 358 kts | 200° |
| 2026-04-25 02:24 | 26.24288 | 127.36720 | 16859 ft | 367 kts | 194° |
| 2026-04-25 02:24 | 26.21714 | 127.36474 | 17455 ft | 376 kts | 189° |
| 2026-04-25 02:24 | 26.19059 | 127.36532 | 18036 ft | 386 kts | 183° |
| 2026-04-25 02:24 | 26.16364 | 127.36916 | 18658 ft | 395 kts | 176° |
| 2026-04-25 02:25 | 26.13664 | 127.37646 | 19270 ft | 403 kts | 170° |
| 2026-04-25 02:25 | 26.11013 | 127.38723 | 19936 ft | 410 kts | 164° |
| 2026-04-25 02:25 | 26.08440 | 127.40154 | 20586 ft | 418 kts | 157° |
| 2026-04-25 02:25 | 26.05948 | 127.41848 | 21180 ft | 419 kts | 159° |
| 2026-04-25 02:26 | 26.03226 | 127.42795 | 21748 ft | 403 kts | 179° |
| 2026-04-25 02:26 | 26.00454 | 127.42984 | 22508 ft | 397 kts | 185° |
| 2026-04-25 02:26 | 25.97705 | 127.42828 | 23166 ft | 394 kts | 192° |
| 2026-04-25 02:26 | 25.95014 | 127.42288 | 23805 ft | 391 kts | 199° |
| 2026-04-25 02:27 | 25.92430 | 127.41373 | 24358 ft | 388 kts | 206° |
| 2026-04-25 02:27 | 25.89995 | 127.40099 | 24922 ft | 386 kts | 213° |
| 2026-04-25 02:27 | 25.87746 | 127.38488 | 25488 ft | 385 kts | 219° |
| 2026-04-25 02:27 | 25.85736 | 127.36587 | 26039 ft | 384 kts | 226° |
| 2026-04-25 02:28 | 25.83951 | 127.34382 | 26595 ft | 385 kts | 232° |
| 2026-04-25 02:28 | 25.82443 | 127.31920 | 27152 ft | 387 kts | 239° |
| 2026-04-25 02:28 | 25.81241 | 127.29236 | 27707 ft | 390 kts | 245° |
| 2026-04-25 02:28 | 25.80373 | 127.26367 | 28252 ft | 395 kts | 252° |
| 2026-04-25 02:29 | 25.79844 | 127.23356 | 28780 ft | 399 kts | 257° |
| 2026-04-25 02:29 | 25.79396 | 127.20306 | 29292 ft | 402 kts | 256° |
| 2026-04-25 02:29 | 25.78924 | 127.17242 | 29800 ft | 404 kts | 256° |
| 2026-04-25 02:29 | 25.78449 | 127.14150 | 30270 ft | 407 kts | 256° |
| 2026-04-25 02:30 | 25.77984 | 127.11045 | 30684 ft | 409 kts | 256° |
| 2026-04-25 02:30 | 25.77515 | 127.07919 | 31101 ft | 411 kts | 256° |
| 2026-04-25 02:30 | 25.77042 | 127.04805 | 31724 ft | 407 kts | 256° |
| 2026-04-25 02:30 | 25.76578 | 127.01759 | 32300 ft | 404 kts | 256° |
| 2026-04-25 02:31 | 25.76110 | 126.98691 | 32862 ft | 402 kts | 256° |
| 2026-04-25 02:31 | 25.75645 | 126.95636 | 33440 ft | 400 kts | 256° |
| 2026-04-25 02:31 | 25.75155 | 126.92612 | 34024 ft | 396 kts | 254° |
| 2026-04-25 02:31 | 25.74434 | 126.89679 | 34542 ft | 392 kts | 249° |
| 2026-04-25 02:32 | 25.73476 | 126.86865 | 35070 ft | 389 kts | 245° |
| 2026-04-25 02:32 | 25.72292 | 126.84183 | 35582 ft | 386 kts | 240° |
| 2026-04-25 02:32 | 25.70892 | 126.81646 | 36100 ft | 384 kts | 236° |
| 2026-04-25 02:32 | 25.69393 | 126.79200 | 36628 ft | 383 kts | 236° |
| 2026-04-25 02:33 | 25.67918 | 126.76755 | 37156 ft | 381 kts | 236° |
| 2026-04-25 02:33 | 25.66445 | 126.74312 | 37696 ft | 380 kts | 236° |
| 2026-04-25 02:33 | 25.64990 | 126.71922 | 38226 ft | 378 kts | 236° |
| 2026-04-25 02:33 | 25.63517 | 126.69508 | 38771 ft | 377 kts | 236° |
| 2026-04-25 02:34 | 25.62053 | 126.67099 | 39222 ft | 376 kts | 236° |
| 2026-04-25 02:34 | 25.60594 | 126.64698 | 39647 ft | 375 kts | 237° |
| 2026-04-25 02:34 | 25.59135 | 126.62302 | 40075 ft | 375 kts | 237° |
| 2026-04-25 02:34 | 25.57675 | 126.59908 | 40506 ft | 375 kts | 237° |
| 2026-04-25 02:35 | 25.56217 | 126.57515 | 40929 ft | 374 kts | 237° |
| 2026-04-25 02:35 | 25.54762 | 126.55127 | 41345 ft | 374 kts | 237° |
| 2026-04-25 02:35 | 25.53303 | 126.52735 | 41753 ft | 374 kts | 237° |
| 2026-04-25 02:35 | 25.51850 | 126.50355 | 42151 ft | 373 kts | 237° |
| 2026-04-25 02:36 | 25.50400 | 126.47968 | 42541 ft | 373 kts | 238° |
| 2026-04-25 02:36 | 25.48965 | 126.45582 | 42915 ft | 372 kts | 238° |
| 2026-04-25 02:36 | 25.47538 | 126.43216 | 43088 ft | 377 kts | 238° |
| 2026-04-25 02:37 | 25.44555 | 126.38298 | 43086 ft | 392 kts | 238° |
| 2026-04-25 02:37 | 25.41462 | 126.33192 | 43096 ft | 406 kts | 238° |
| 2026-04-25 02:38 | 25.38265 | 126.27926 | 43096 ft | 417 kts | 238° |
| 2026-04-25 02:38 | 25.35003 | 126.22558 | 43094 ft | 423 kts | 238° |
| 2026-04-25 02:39 | 25.31719 | 126.17159 | 43091 ft | 423 kts | 238° |
| 2026-04-25 02:39 | 25.28428 | 126.11756 | 43087 ft | 423 kts | 238° |
| 2026-04-25 02:40 | 25.25138 | 126.06361 | 43084 ft | 423 kts | 238° |
| 2026-04-25 02:40 | 25.21847 | 126.00971 | 43085 ft | 423 kts | 238° |
| 2026-04-25 02:41 | 25.18556 | 125.95588 | 43087 ft | 423 kts | 238° |
| 2026-04-25 02:41 | 25.15260 | 125.90203 | 43084 ft | 423 kts | 238° |
| 2026-04-25 02:42 | 25.11986 | 125.84859 | 43080 ft | 423 kts | 238° |
| 2026-04-25 02:42 | 25.08666 | 125.79447 | 43082 ft | 423 kts | 238° |
| 2026-04-25 02:43 | 25.05387 | 125.74108 | 43080 ft | 423 kts | 238° |
| 2026-04-25 02:43 | 25.02086 | 125.68741 | 43076 ft | 423 kts | 238° |
| 2026-04-25 02:44 | 24.98778 | 125.63370 | 43075 ft | 423 kts | 238° |
| 2026-04-25 02:44 | 24.95471 | 125.58006 | 43071 ft | 423 kts | 238° |
| 2026-04-25 02:45 | 24.92163 | 125.52646 | 43071 ft | 423 kts | 238° |
| 2026-04-25 02:45 | 24.88851 | 125.47285 | 43073 ft | 423 kts | 238° |
| 2026-04-25 02:46 | 24.85539 | 125.41929 | 43069 ft | 423 kts | 238° |
| 2026-04-25 02:46 | 24.82223 | 125.36575 | 43076 ft | 423 kts | 238° |
| 2026-04-25 02:47 | 24.78772 | 125.31315 | 43066 ft | 425 kts | 232° |
| 2026-04-25 02:47 | 24.74457 | 125.26864 | 43072 ft | 433 kts | 222° |
| 2026-04-25 02:48 | 24.69499 | 125.23079 | 43085 ft | 434 kts | 220° |
| 2026-04-25 02:48 | 24.64534 | 125.19283 | 43082 ft | 434 kts | 220° |
| 2026-04-25 02:49 | 24.60383 | 125.16139 | 43079 ft | 435 kts | 220° |
| 2026-04-25 02:49 | 24.55402 | 125.12353 | 43067 ft | 434 kts | 220° |
| 2026-04-25 02:50 | 24.50408 | 125.08565 | 43064 ft | 438 kts | 219° |
| 2026-04-25 02:50 | 24.45391 | 125.04764 | 43070 ft | 438 kts | 219° |
| 2026-04-25 02:51 | 24.40370 | 125.00963 | 43073 ft | 438 kts | 219° |
| 2026-04-25 02:51 | 24.35345 | 124.97164 | 43064 ft | 438 kts | 219° |
| 2026-04-25 02:52 | 24.30364 | 124.93400 | 43053 ft | 438 kts | 219° |
| 2026-04-25 02:52 | 24.25340 | 124.89608 | 43053 ft | 438 kts | 219° |
| 2026-04-25 02:53 | 24.20313 | 124.85818 | 43058 ft | 438 kts | 219° |
| 2026-04-25 02:53 | 24.15291 | 124.82034 | 43054 ft | 438 kts | 219° |
| 2026-04-25 02:54 | 24.10261 | 124.78249 | 43052 ft | 438 kts | 219° |
| 2026-04-25 02:54 | 24.05267 | 124.74494 | 43055 ft | 439 kts | 219° |
| 2026-04-25 02:55 | 24.00229 | 124.70710 | 43055 ft | 439 kts | 219° |
| 2026-04-25 02:55 | 23.95195 | 124.66933 | 43050 ft | 439 kts | 219° |
| 2026-04-25 02:56 | 23.90151 | 124.63151 | 43053 ft | 439 kts | 219° |
| 2026-04-25 02:56 | 23.85106 | 124.59373 | 43051 ft | 440 kts | 219° |
| 2026-04-25 02:57 | 23.80054 | 124.55593 | 43049 ft | 440 kts | 219° |
| 2026-04-25 02:57 | 23.75001 | 124.51815 | 43052 ft | 441 kts | 219° |
| 2026-04-25 02:58 | 23.69944 | 124.48039 | 43049 ft | 441 kts | 219° |
| 2026-04-25 02:58 | 23.64905 | 124.44279 | 43051 ft | 441 kts | 219° |
| 2026-04-25 02:59 | 23.59833 | 124.40498 | 43048 ft | 441 kts | 219° |
| 2026-04-25 02:59 | 23.54762 | 124.36723 | 43049 ft | 441 kts | 219° |
| 2026-04-25 03:00 | 23.49681 | 124.32943 | 43045 ft | 441 kts | 219° |
| 2026-04-25 03:00 | 23.44611 | 124.29174 | 43052 ft | 442 kts | 219° |
| 2026-04-25 03:01 | 23.39564 | 124.25427 | 43048 ft | 442 kts | 219° |
| 2026-04-25 03:01 | 23.34473 | 124.21650 | 43047 ft | 443 kts | 219° |
| 2026-04-25 03:02 | 23.29381 | 124.17880 | 43041 ft | 443 kts | 219° |
| 2026-04-25 03:02 | 23.24278 | 124.14105 | 43044 ft | 442 kts | 219° |
| 2026-04-25 03:03 | 23.19177 | 124.10334 | 43045 ft | 444 kts | 219° |
| 2026-04-25 03:03 | 23.14097 | 124.06583 | 43042 ft | 444 kts | 219° |
| 2026-04-25 03:04 | 23.08975 | 124.02805 | 43042 ft | 444 kts | 218° |
| 2026-04-25 03:04 | 23.03847 | 123.99025 | 43044 ft | 445 kts | 218° |
| 2026-04-25 03:05 | 22.96159 | 123.93426 | 43048 ft | 446 kts | 218° |
| 2026-04-25 03:05 | 22.90963 | 123.89723 | 43047 ft | 447 kts | 218° |
| 2026-04-25 03:06 | 22.85776 | 123.85988 | 43049 ft | 448 kts | 218° |
| 2026-04-25 03:06 | 22.80569 | 123.82269 | 43041 ft | 448 kts | 218° |
| 2026-04-25 03:07 | 22.75358 | 123.78535 | 43045 ft | 448 kts | 218° |
| 2026-04-25 03:07 | 22.70182 | 123.74838 | 43042 ft | 448 kts | 218° |
| 2026-04-25 03:08 | 22.64951 | 123.71100 | 43038 ft | 450 kts | 217° |
| 2026-04-25 03:08 | 22.59716 | 123.67366 | 43042 ft | 450 kts | 217° |
| 2026-04-25 03:09 | 22.54503 | 123.63648 | 43039 ft | 452 kts | 217° |
| 2026-04-25 03:09 | 22.49244 | 123.59903 | 43034 ft | 453 kts | 217° |
| 2026-04-25 03:10 | 22.43981 | 123.56158 | 43034 ft | 453 kts | 217° |
| 2026-04-25 03:10 | 22.38700 | 123.52404 | 43041 ft | 454 kts | 217° |
| 2026-04-25 03:11 | 22.33414 | 123.48649 | 43038 ft | 454 kts | 217° |
| 2026-04-25 03:11 | 22.28162 | 123.44922 | 43034 ft | 455 kts | 217° |
| 2026-04-25 03:12 | 22.22861 | 123.41164 | 43034 ft | 456 kts | 217° |
| 2026-04-25 03:12 | 22.17563 | 123.37412 | 43036 ft | 456 kts | 217° |
| 2026-04-25 03:13 | 22.12252 | 123.33653 | 43034 ft | 457 kts | 217° |
| 2026-04-25 03:13 | 22.06939 | 123.29897 | 43035 ft | 457 kts | 217° |
| 2026-04-25 03:14 | 22.01616 | 123.26136 | 43031 ft | 457 kts | 217° |
| 2026-04-25 03:14 | 21.96291 | 123.22378 | 43033 ft | 458 kts | 217° |
| 2026-04-25 03:15 | 21.90940 | 123.18606 | 43030 ft | 459 kts | 217° |
| 2026-04-25 03:15 | 21.85597 | 123.14842 | 43032 ft | 459 kts | 216° |
| 2026-04-25 03:16 | 21.80245 | 123.11075 | 43031 ft | 460 kts | 216° |
| 2026-04-25 03:16 | 21.74890 | 123.07309 | 43029 ft | 460 kts | 216° |
| 2026-04-25 03:17 | 21.69560 | 123.03565 | 43024 ft | 461 kts | 216° |
| 2026-04-25 03:17 | 21.64184 | 122.99792 | 43022 ft | 461 kts | 216° |
| 2026-04-25 03:18 | 21.58807 | 122.96022 | 43023 ft | 462 kts | 216° |
| 2026-04-25 03:18 | 21.53423 | 122.92250 | 43024 ft | 462 kts | 216° |
| 2026-04-25 03:19 | 21.48026 | 122.88472 | 43020 ft | 462 kts | 216° |
| 2026-04-25 03:19 | 21.42639 | 122.84704 | 43022 ft | 462 kts | 216° |
| 2026-04-25 03:20 | 21.37282 | 122.80961 | 43020 ft | 463 kts | 216° |
| 2026-04-25 03:20 | 21.31881 | 122.77190 | 43026 ft | 463 kts | 215° |
| 2026-04-25 03:21 | 21.26477 | 122.73421 | 43027 ft | 463 kts | 215° |
| 2026-04-25 03:21 | 21.21077 | 122.69657 | 43023 ft | 463 kts | 215° |
| 2026-04-25 03:22 | 21.15673 | 122.65895 | 43021 ft | 463 kts | 215° |
| 2026-04-25 03:22 | 21.10265 | 122.62133 | 43027 ft | 464 kts | 215° |
| 2026-04-25 03:23 | 21.04849 | 122.58369 | 43020 ft | 464 kts | 215° |
| 2026-04-25 03:23 | 20.99472 | 122.54618 | 43024 ft | 464 kts | 216° |
| 2026-04-25 03:24 | 20.94151 | 122.50714 | 43025 ft | 464 kts | 216° |
| 2026-04-25 03:24 | 20.88802 | 122.46811 | 43021 ft | 464 kts | 216° |
| 2026-04-25 03:25 | 20.83476 | 122.42915 | 43020 ft | 464 kts | 216° |
| 2026-04-25 03:25 | 20.78131 | 122.39016 | 43019 ft | 465 kts | 216° |
| 2026-04-25 03:26 | 20.72820 | 122.35141 | 43019 ft | 465 kts | 216° |
| 2026-04-25 03:26 | 20.67473 | 122.31245 | 43014 ft | 465 kts | 216° |
| 2026-04-25 03:27 | 20.62107 | 122.27338 | 43022 ft | 467 kts | 216° |
| 2026-04-25 03:27 | 20.56731 | 122.23427 | 43025 ft | 467 kts | 216° |
| 2026-04-25 03:28 | 20.51350 | 122.19516 | 43023 ft | 468 kts | 216° |
| 2026-04-25 03:28 | 20.46000 | 122.15631 | 43016 ft | 468 kts | 217° |
| 2026-04-25 03:29 | 20.40607 | 122.11717 | 43024 ft | 469 kts | 217° |
| 2026-04-25 03:29 | 20.35206 | 122.07802 | 43024 ft | 469 kts | 217° |
| 2026-04-25 03:30 | 20.29800 | 122.03887 | 43008 ft | 469 kts | 217° |
| 2026-04-25 03:30 | 20.24398 | 121.99977 | 43020 ft | 470 kts | 217° |
| 2026-04-25 03:31 | 20.19017 | 121.96086 | 43026 ft | 470 kts | 217° |
| 2026-04-25 03:31 | 20.13598 | 121.92171 | 43022 ft | 471 kts | 217° |
| 2026-04-25 03:32 | 20.08177 | 121.88258 | 43020 ft | 471 kts | 217° |
| 2026-04-25 03:32 | 20.02746 | 121.84341 | 43016 ft | 472 kts | 217° |
| 2026-04-25 03:33 | 19.97311 | 121.80424 | 43015 ft | 472 kts | 217° |
| 2026-04-25 03:33 | 19.91870 | 121.76506 | 43009 ft | 472 kts | 216° |
| 2026-04-25 03:34 | 19.86436 | 121.72597 | 43008 ft | 472 kts | 216° |
| 2026-04-25 03:34 | 19.81016 | 121.68701 | 43008 ft | 472 kts | 216° |
| 2026-04-25 03:35 | 19.75569 | 121.64789 | 43008 ft | 472 kts | 216° |
| 2026-04-25 03:35 | 19.70116 | 121.60876 | 43005 ft | 472 kts | 216° |
| 2026-04-25 03:36 | 19.64702 | 121.56994 | 43003 ft | 472 kts | 216° |
| 2026-04-25 03:36 | 19.59245 | 121.53085 | 42996 ft | 473 kts | 216° |
| 2026-04-25 03:37 | 19.53792 | 121.49181 | 43000 ft | 473 kts | 216° |
| 2026-04-25 03:37 | 19.48322 | 121.45269 | 42996 ft | 473 kts | 216° |
| 2026-04-25 03:38 | 19.42856 | 121.41363 | 43001 ft | 473 kts | 216° |
| 2026-04-25 03:38 | 19.37432 | 121.37490 | 42990 ft | 473 kts | 216° |
| 2026-04-25 03:39 | 19.31972 | 121.33594 | 42991 ft | 473 kts | 216° |
| 2026-04-25 03:39 | 19.26511 | 121.29701 | 42990 ft | 473 kts | 216° |
| 2026-04-25 03:40 | 19.21970 | 121.26466 | 42998 ft | 473 kts | 216° |
| 2026-04-25 03:40 | 19.16509 | 121.22579 | 42994 ft | 474 kts | 216° |
| 2026-04-25 03:41 | 19.11037 | 121.18688 | 42987 ft | 473 kts | 216° |
| 2026-04-25 03:41 | 19.05568 | 121.14801 | 42992 ft | 474 kts | 216° |
| 2026-04-25 03:42 | 19.00096 | 121.10915 | 42988 ft | 473 kts | 216° |
| 2026-04-25 03:42 | 18.94629 | 121.07036 | 42976 ft | 473 kts | 216° |
| 2026-04-25 03:43 | 18.89156 | 121.03156 | 42978 ft | 474 kts | 216° |
| 2026-04-25 03:43 | 18.83683 | 120.99280 | 42969 ft | 474 kts | 215° |
| 2026-04-25 03:44 | 18.78241 | 120.95428 | 42965 ft | 473 kts | 215° |
| 2026-04-25 03:44 | 18.72761 | 120.91552 | 42967 ft | 474 kts | 215° |
| 2026-04-25 03:45 | 18.67278 | 120.87677 | 42965 ft | 474 kts | 215° |
| 2026-04-25 03:45 | 18.61799 | 120.83808 | 42970 ft | 474 kts | 215° |
| 2026-04-25 03:46 | 18.56310 | 120.79935 | 42967 ft | 474 kts | 215° |
| 2026-04-25 03:46 | 18.50827 | 120.76071 | 42959 ft | 474 kts | 215° |
| 2026-04-25 03:47 | 18.45338 | 120.72205 | 42965 ft | 475 kts | 215° |
| 2026-04-25 03:47 | 18.39846 | 120.68339 | 42966 ft | 475 kts | 215° |
| 2026-04-25 03:48 | 18.34354 | 120.64477 | 42963 ft | 474 kts | 215° |
| 2026-04-25 03:48 | 18.28889 | 120.60635 | 42963 ft | 475 kts | 215° |
| 2026-04-25 03:49 | 18.23312 | 120.56894 | 42939 ft | 477 kts | 209° |
| 2026-04-25 03:49 | 18.17007 | 120.54641 | 42954 ft | 482 kts | 193° |
| 2026-04-25 03:50 | 18.10272 | 120.54375 | 42959 ft | 490 kts | 177° |
| 2026-04-25 03:50 | 18.03532 | 120.55587 | 42970 ft | 492 kts | 173° |
| 2026-04-25 03:51 | 17.96782 | 120.56828 | 42970 ft | 492 kts | 173° |
| 2026-04-25 03:51 | 17.90036 | 120.58079 | 42961 ft | 492 kts | 173° |
| 2026-04-25 03:52 | 17.83291 | 120.59324 | 42941 ft | 492 kts | 173° |
| 2026-04-25 03:52 | 17.76548 | 120.60569 | 42959 ft | 493 kts | 173° |
| 2026-04-25 03:53 | 17.69826 | 120.61810 | 42972 ft | 492 kts | 173° |
| 2026-04-25 03:53 | 17.63074 | 120.63055 | 42973 ft | 492 kts | 173° |
| 2026-04-25 03:54 | 17.56317 | 120.64303 | 42969 ft | 493 kts | 173° |
| 2026-04-25 03:54 | 17.49562 | 120.65548 | 42975 ft | 493 kts | 173° |
| 2026-04-25 03:55 | 17.42802 | 120.66795 | 42975 ft | 493 kts | 173° |
| 2026-04-25 03:55 | 17.36034 | 120.68040 | 42980 ft | 494 kts | 173° |
| 2026-04-25 03:56 | 17.29305 | 120.69279 | 42985 ft | 494 kts | 173° |
| 2026-04-25 03:56 | 17.22528 | 120.70527 | 42989 ft | 494 kts | 172° |
| 2026-04-25 03:57 | 17.15737 | 120.71784 | 43001 ft | 497 kts | 172° |
| 2026-04-25 03:57 | 17.08927 | 120.73039 | 43009 ft | 497 kts | 172° |
| 2026-04-25 03:58 | 17.02118 | 120.74296 | 43020 ft | 497 kts | 172° |
| 2026-04-25 03:58 | 16.95304 | 120.75550 | 43021 ft | 497 kts | 172° |
| 2026-04-25 03:59 | 16.88487 | 120.76806 | 43029 ft | 497 kts | 172° |
| 2026-04-25 03:59 | 16.81719 | 120.78051 | 42949 ft | 490 kts | 172° |
| 2026-04-25 04:00 | 16.78416 | 120.78661 | 42410 ft | 475 kts | 172° |
| 2026-04-25 04:00 | 16.75209 | 120.79252 | 41917 ft | 462 kts | 172° |
| 2026-04-25 04:00 | 16.72079 | 120.79825 | 41418 ft | 451 kts | 172° |
| 2026-04-25 04:00 | 16.69019 | 120.80385 | 40949 ft | 444 kts | 172° |
| 2026-04-25 04:01 | 16.65981 | 120.80942 | 40477 ft | 443 kts | 172° |
| 2026-04-25 04:01 | 16.62925 | 120.81502 | 40000 ft | 449 kts | 172° |
| 2026-04-25 04:01 | 16.59825 | 120.82071 | 39505 ft | 454 kts | 172° |
| 2026-04-25 04:01 | 16.56705 | 120.82645 | 38990 ft | 455 kts | 172° |
| 2026-04-25 04:02 | 16.53576 | 120.83220 | 38453 ft | 457 kts | 172° |
| 2026-04-25 04:02 | 16.50476 | 120.83787 | 37948 ft | 457 kts | 172° |
| 2026-04-25 04:02 | 16.47339 | 120.84361 | 37445 ft | 458 kts | 172° |
| 2026-04-25 04:02 | 16.44193 | 120.84938 | 36933 ft | 460 kts | 172° |
| 2026-04-25 04:03 | 16.41033 | 120.85517 | 36425 ft | 461 kts | 172° |